sensor_id;sensor_type;location;lat;lon;timestamp;pressure;altitude;pressure_sealevel;temperature;humidity
74722;BME280;63470;49.826;6.740;2023-07-16T00:00:57;99835.29;;;19.44;48.48
74722;BME280;63470;49.826;6.740;2023-07-16T00:03:28;99841.22;;;19.43;48.50
74722;BME280;63470;49.826;6.740;2023-07-16T00:05:58;99840.58;;;19.44;48.50
74722;BME280;63470;49.826;6.740;2023-07-16T00:08:29;99839.09;;;19.45;48.50
74722;BME280;63470;49.826;6.740;2023-07-16T00:10:59;99846.91;;;19.44;48.49
74722;BME280;63470;49.826;6.740;2023-07-16T00:13:30;99836.84;;;19.46;48.50
74722;BME280;63470;49.826;6.740;2023-07-16T00:16:00;99841.01;;;19.46;48.53
74722;BME280;63470;49.826;6.740;2023-07-16T00:18:31;99837.89;;;19.44;48.58
74722;BME280;63470;49.826;6.740;2023-07-16T00:21:02;99844.92;;;19.42;48.62
74722;BME280;63470;49.826;6.740;2023-07-16T00:23:32;99845.38;;;19.40;48.63
74722;BME280;63470;49.826;6.740;2023-07-16T00:26:03;99835.81;;;19.41;48.60
74722;BME280;63470;49.826;6.740;2023-07-16T00:28:36;99830.51;;;19.39;48.60
74722;BME280;63470;49.826;6.740;2023-07-16T00:31:04;99835.28;;;19.40;48.61
74722;BME280;63470;49.826;6.740;2023-07-16T00:33:34;99834.23;;;19.42;48.58
74722;BME280;63470;49.826;6.740;2023-07-16T00:36:05;99839.77;;;19.42;48.59
74722;BME280;63470;49.826;6.740;2023-07-16T00:38:36;99837.11;;;19.41;48.59
74722;BME280;63470;49.826;6.740;2023-07-16T00:41:07;99839.62;;;19.40;48.59
74722;BME280;63470;49.826;6.740;2023-07-16T00:43:36;99841.53;;;19.36;48.64
74722;BME280;63470;49.826;6.740;2023-07-16T00:46:08;99841.09;;;19.33;48.69
74722;BME280;63470;49.826;6.740;2023-07-16T00:48:40;99846.34;;;19.32;48.71
74722;BME280;63470;49.826;6.740;2023-07-16T00:51:08;99853.52;;;19.29;48.73
74722;BME280;63470;49.826;6.740;2023-07-16T00:53:39;99854.33;;;19.28;48.73
74722;BME280;63470;49.826;6.740;2023-07-16T00:56:10;99857.22;;;19.26;48.71
74722;BME280;63470;49.826;6.740;2023-07-16T00:58:40;99858.15;;;19.26;48.71
74722;BME280;63470;49.826;6.740;2023-07-16T01:01:10;99862.92;;;19.24;48.74
74722;BME280;63470;49.826;6.740;2023-07-16T01:03:41;99865.84;;;19.22;48.78
74722;BME280;63470;49.826;6.740;2023-07-16T01:06:18;99872.73;;;19.18;48.81
74722;BME280;63470;49.826;6.740;2023-07-16T01:08:46;99872.13;;;19.14;48.83
74722;BME280;63470;49.826;6.740;2023-07-16T01:11:12;99876.92;;;19.07;48.93
74722;BME280;63470;49.826;6.740;2023-07-16T01:13:43;99874.41;;;18.98;49.05
74722;BME280;63470;49.826;6.740;2023-07-16T01:16:23;99873.71;;;18.88;49.18
74722;BME280;63470;49.826;6.740;2023-07-16T01:18:44;99882.55;;;18.79;49.28
74722;BME280;63470;49.826;6.740;2023-07-16T01:21:16;99884.68;;;18.75;49.28
74722;BME280;63470;49.826;6.740;2023-07-16T01:23:55;99887.33;;;18.70;49.30
74722;BME280;63470;49.826;6.740;2023-07-16T01:29:14;99890.48;;;18.60;49.36
74722;BME280;63470;49.826;6.740;2023-07-16T01:31:17;99889.13;;;18.57;49.34
74722;BME280;63470;49.826;6.740;2023-07-16T01:33:48;99893.08;;;18.53;49.36
74722;BME280;63470;49.826;6.740;2023-07-16T01:36:18;99902.12;;;18.47;49.45
74722;BME280;63470;49.826;6.740;2023-07-16T01:38:51;99899.57;;;18.43;49.48
74722;BME280;63470;49.826;6.740;2023-07-16T01:41:21;99894.62;;;18.43;49.42
74722;BME280;63470;49.826;6.740;2023-07-16T01:43:49;99892.20;;;18.43;49.37
74722;BME280;63470;49.826;6.740;2023-07-16T01:46:20;99898.06;;;18.43;49.36
74722;BME280;63470;49.826;6.740;2023-07-16T01:48:50;99892.22;;;18.41;49.33
74722;BME280;63470;49.826;6.740;2023-07-16T01:51:21;99908.88;;;18.39;49.35
74722;BME280;63470;49.826;6.740;2023-07-16T01:53:51;99911.55;;;18.36;49.38
74722;BME280;63470;49.826;6.740;2023-07-16T01:56:22;99908.11;;;18.31;49.42
74722;BME280;63470;49.826;6.740;2023-07-16T01:58:52;99914.12;;;18.26;49.47
74722;BME280;63470;49.826;6.740;2023-07-16T02:01:23;99912.66;;;18.29;49.37
74722;BME280;63470;49.826;6.740;2023-07-16T02:03:54;99919.80;;;18.30;49.33
74722;BME280;63470;49.826;6.740;2023-07-16T02:06:24;99919.06;;;18.30;49.30
74722;BME280;63470;49.826;6.740;2023-07-16T02:08:58;99925.52;;;18.28;49.32
74722;BME280;63470;49.826;6.740;2023-07-16T02:11:28;99924.12;;;18.28;49.31
74722;BME280;63470;49.826;6.740;2023-07-16T02:13:56;99932.81;;;18.24;49.38
74722;BME280;63470;49.826;6.740;2023-07-16T02:16:27;99932.39;;;18.18;49.44
74722;BME280;63470;49.826;6.740;2023-07-16T02:18:57;99929.89;;;18.12;49.50
74722;BME280;63470;49.826;6.740;2023-07-16T02:21:28;99927.42;;;18.07;49.54
74722;BME280;63470;49.826;6.740;2023-07-16T02:23:58;99928.67;;;18.02;49.58
74722;BME280;63470;49.826;6.740;2023-07-16T02:26:32;99938.20;;;17.97;49.62
74722;BME280;63470;49.826;6.740;2023-07-16T02:29:00;99942.45;;;17.92;49.66
74722;BME280;63470;49.826;6.740;2023-07-16T02:31:30;99939.39;;;17.88;49.67
74722;BME280;63470;49.826;6.740;2023-07-16T02:34:01;99935.88;;;17.84;49.69
74722;BME280;63470;49.826;6.740;2023-07-16T02:36:33;99938.52;;;17.78;49.76
74722;BME280;63470;49.826;6.740;2023-07-16T02:39:02;99945.31;;;17.70;49.85
74722;BME280;63470;49.826;6.740;2023-07-16T02:41:35;99949.99;;;17.67;49.86
74722;BME280;63470;49.826;6.740;2023-07-16T02:44:05;99951.37;;;17.65;49.82
74722;BME280;63470;49.826;6.740;2023-07-16T02:46:34;99953.89;;;17.59;49.88
74722;BME280;63470;49.826;6.740;2023-07-16T02:49:05;99955.62;;;17.54;49.93
74722;BME280;63470;49.826;6.740;2023-07-16T02:51:34;99957.75;;;17.52;49.92
74722;BME280;63470;49.826;6.740;2023-07-16T02:54:05;99961.06;;;17.48;49.93
74722;BME280;63470;49.826;6.740;2023-07-16T02:56:35;99966.10;;;17.44;49.96
74722;BME280;63470;49.826;6.740;2023-07-16T02:59:06;99966.55;;;17.39;50.02
74722;BME280;63470;49.826;6.740;2023-07-16T03:01:36;99964.47;;;17.37;50.00
74722;BME280;63470;49.826;6.740;2023-07-16T03:04:07;99968.53;;;17.33;49.99
74722;BME280;63470;49.826;6.740;2023-07-16T03:06:37;99973.45;;;17.29;50.04
74722;BME280;63470;49.826;6.740;2023-07-16T03:09:08;99977.76;;;17.27;50.04
74722;BME280;63470;49.826;6.740;2023-07-16T03:11:38;99977.98;;;17.28;49.97
74722;BME280;63470;49.826;6.740;2023-07-16T03:14:09;99983.23;;;17.26;49.96
74722;BME280;63470;49.826;6.740;2023-07-16T03:16:39;99983.08;;;17.23;49.99
74722;BME280;63470;49.826;6.740;2023-07-16T03:19:09;99980.61;;;17.18;50.05
74722;BME280;63470;49.826;6.740;2023-07-16T03:21:40;99985.14;;;17.16;50.06
74722;BME280;63470;49.826;6.740;2023-07-16T03:24:10;99987.34;;;17.13;50.08
74722;BME280;63470;49.826;6.740;2023-07-16T03:26:41;99992.79;;;17.07;50.16
74722;BME280;63470;49.826;6.740;2023-07-16T03:29:11;99992.28;;;17.04;50.19
74722;BME280;63470;49.826;6.740;2023-07-16T03:31:42;99989.39;;;17.02;50.17
74722;BME280;63470;49.826;6.740;2023-07-16T03:34:12;99993.92;;;16.99;50.20
74722;BME280;63470;49.826;6.740;2023-07-16T03:36:43;100006.77;;;16.94;50.27
74722;BME280;63470;49.826;6.740;2023-07-16T03:39:13;100015.20;;;16.90;50.31
74722;BME280;63470;49.826;6.740;2023-07-16T03:41:44;100011.28;;;16.88;50.29
74722;BME280;63470;49.826;6.740;2023-07-16T03:44:17;100013.65;;;16.87;50.30
74722;BME280;63470;49.826;6.740;2023-07-16T03:46:44;100015.06;;;16.82;50.34
74722;BME280;63470;49.826;6.740;2023-07-16T03:49:15;100017.74;;;16.78;50.39
74722;BME280;63470;49.826;6.740;2023-07-16T03:51:48;100015.83;;;16.76;50.39
74722;BME280;63470;49.826;6.740;2023-07-16T03:54:16;100017.61;;;16.77;50.33
74722;BME280;63470;49.826;6.740;2023-07-16T03:56:47;100021.00;;;16.79;50.25
74722;BME280;63470;49.826;6.740;2023-07-16T03:59:17;100020.08;;;16.83;50.14
74722;BME280;63470;49.826;6.740;2023-07-16T04:01:47;100021.91;;;16.85;50.09
74722;BME280;63470;49.826;6.740;2023-07-16T04:04:18;100029.64;;;16.86;50.08
74722;BME280;63470;49.826;6.740;2023-07-16T04:06:48;100033.11;;;16.90;49.97
74722;BME280;63470;49.826;6.740;2023-07-16T04:09:19;100037.89;;;16.89;49.98
74722;BME280;63470;49.826;6.740;2023-07-16T04:11:49;100038.70;;;16.86;50.06
74722;BME280;63470;49.826;6.740;2023-07-16T04:14:20;100038.30;;;16.84;50.12
74722;BME280;63470;49.826;6.740;2023-07-16T04:16:50;100039.53;;;16.85;50.14
74722;BME280;63470;49.826;6.740;2023-07-16T04:19:20;100045.78;;;16.87;50.11
74722;BME280;63470;49.826;6.740;2023-07-16T04:21:51;100046.95;;;16.88;50.10
74722;BME280;63470;49.826;6.740;2023-07-16T04:24:21;100042.97;;;16.87;50.13
74722;BME280;63470;49.826;6.740;2023-07-16T04:26:52;100042.28;;;16.87;50.16
74722;BME280;63470;49.826;6.740;2023-07-16T04:29:22;100048.53;;;16.86;50.18
74722;BME280;63470;49.826;6.740;2023-07-16T04:31:52;100047.32;;;16.87;50.19
74722;BME280;63470;49.826;6.740;2023-07-16T04:34:23;100052.45;;;16.90;50.12
74722;BME280;63470;49.826;6.740;2023-07-16T04:36:53;100054.34;;;16.94;50.04
74722;BME280;63470;49.826;6.740;2023-07-16T04:39:24;100055.86;;;16.99;49.96
74722;BME280;63470;49.826;6.740;2023-07-16T04:41:54;100050.22;;;17.03;49.90
74722;BME280;63470;49.826;6.740;2023-07-16T04:44:25;100057.47;;;17.09;49.82
74722;BME280;63470;49.826;6.740;2023-07-16T04:46:55;100060.05;;;17.13;49.75
74722;BME280;63470;49.826;6.740;2023-07-16T04:49:28;100060.77;;;17.17;49.68
74722;BME280;63470;49.826;6.740;2023-07-16T04:51:56;100071.99;;;17.20;49.64
74722;BME280;63470;49.826;6.740;2023-07-16T04:54:27;100073.98;;;17.24;49.60
74722;BME280;63470;49.826;6.740;2023-07-16T04:56:57;100071.55;;;17.30;49.55
74722;BME280;63470;49.826;6.740;2023-07-16T04:59:28;100069.37;;;17.34;49.50
74722;BME280;63470;49.826;6.740;2023-07-16T05:01:58;100074.47;;;17.41;49.42
74722;BME280;63470;49.826;6.740;2023-07-16T05:04:29;100072.94;;;17.47;49.36
74722;BME280;63470;49.826;6.740;2023-07-16T05:07:01;100073.88;;;17.48;49.38
74722;BME280;63470;49.826;6.740;2023-07-16T05:09:30;100077.44;;;17.55;49.34
74722;BME280;63470;49.826;6.740;2023-07-16T05:12:01;100082.48;;;17.66;49.24
74722;BME280;63470;49.826;6.740;2023-07-16T05:14:46;100083.66;;;17.76;49.16
74722;BME280;63470;49.826;6.740;2023-07-16T05:17:03;100080.17;;;17.81;49.13
74722;BME280;63470;49.826;6.740;2023-07-16T05:19:32;100085.98;;;17.85;49.13
74722;BME280;63470;49.826;6.740;2023-07-16T05:22:03;100091.17;;;17.88;49.13
74722;BME280;63470;49.826;6.740;2023-07-16T05:24:35;100090.83;;;17.90;49.15
74722;BME280;63470;49.826;6.740;2023-07-16T05:27:04;100093.23;;;17.94;49.15
74722;BME280;63470;49.826;6.740;2023-07-16T05:29:34;100094.31;;;18.01;49.14
74722;BME280;63470;49.826;6.740;2023-07-16T05:32:05;100091.42;;;18.16;49.00
74722;BME280;63470;49.826;6.740;2023-07-16T05:34:35;100107.20;;;18.28;48.94
74722;BME280;63470;49.826;6.740;2023-07-16T05:37:07;100104.86;;;18.38;48.87
74722;BME280;63470;49.826;6.740;2023-07-16T05:39:35;100110.62;;;18.43;48.86
74722;BME280;63470;49.826;6.740;2023-07-16T05:42:06;100111.38;;;18.52;48.80
74722;BME280;63470;49.826;6.740;2023-07-16T05:44:36;100118.12;;;18.67;48.67
74722;BME280;63470;49.826;6.740;2023-07-16T05:47:07;100113.19;;;18.78;48.58
74722;BME280;63470;49.826;6.740;2023-07-16T05:49:37;100113.97;;;18.94;48.50
74722;BME280;63470;49.826;6.740;2023-07-16T05:52:10;100115.78;;;19.05;48.46
74722;BME280;63470;49.826;6.740;2023-07-16T05:54:38;100120.97;;;19.19;48.42
74722;BME280;63470;49.826;6.740;2023-07-16T05:57:09;100123.82;;;19.46;48.35
74722;BME280;63470;49.826;6.740;2023-07-16T05:59:39;100114.73;;;20.86;47.45
74722;BME280;63470;49.826;6.740;2023-07-16T06:02:10;100114.05;;;22.14;46.64
74722;BME280;63470;49.826;6.740;2023-07-16T06:04:41;100106.53;;;23.28;45.83
74722;BME280;63470;49.826;6.740;2023-07-16T06:07:12;100106.59;;;24.61;44.76
74722;BME280;63470;49.826;6.740;2023-07-16T06:09:42;100112.03;;;24.86;44.91
74722;BME280;63470;49.826;6.740;2023-07-16T06:12:12;100108.27;;;25.44;44.62
74722;BME280;63470;49.826;6.740;2023-07-16T06:14:42;100111.50;;;26.11;44.24
74722;BME280;63470;49.826;6.740;2023-07-16T06:17:13;100108.62;;;26.89;43.75
74722;BME280;63470;49.826;6.740;2023-07-16T06:19:43;100110.70;;;27.38;43.54
74722;BME280;63470;49.826;6.740;2023-07-16T06:22:14;100108.39;;;27.66;43.52
74722;BME280;63470;49.826;6.740;2023-07-16T06:24:44;100111.22;;;27.98;43.49
74722;BME280;63470;49.826;6.740;2023-07-16T06:27:15;100113.12;;;28.12;43.60
74722;BME280;63470;49.826;6.740;2023-07-16T06:29:46;100103.91;;;28.50;43.41
74722;BME280;63470;49.826;6.740;2023-07-16T06:32:16;100111.00;;;28.58;43.64
74722;BME280;63470;49.826;6.740;2023-07-16T06:34:47;100112.79;;;29.03;43.32
74722;BME280;63470;49.826;6.740;2023-07-16T06:37:17;100113.98;;;29.43;43.01
74722;BME280;63470;49.826;6.740;2023-07-16T06:39:48;100119.09;;;29.37;43.29
74722;BME280;63470;49.826;6.740;2023-07-16T06:42:19;100124.23;;;29.42;43.33
74722;BME280;63470;49.826;6.740;2023-07-16T06:44:49;100125.03;;;29.79;42.94
74722;BME280;63470;49.826;6.740;2023-07-16T06:47:20;100127.45;;;29.61;43.25
74722;BME280;63470;49.826;6.740;2023-07-16T06:49:50;100127.98;;;29.39;43.57
74722;BME280;63470;49.826;6.740;2023-07-16T06:52:22;100131.78;;;28.78;44.40
74722;BME280;63470;49.826;6.740;2023-07-16T06:54:52;100127.19;;;28.61;44.58
74722;BME280;63470;49.826;6.740;2023-07-16T06:57:27;100129.55;;;28.77;44.28
74722;BME280;63470;49.826;6.740;2023-07-16T06:59:52;100124.95;;;28.75;44.13
74722;BME280;63470;49.826;6.740;2023-07-16T07:02:23;100127.41;;;28.17;44.77
74722;BME280;63470;49.826;6.740;2023-07-16T07:04:54;100133.75;;;28.45;44.21
74722;BME280;63470;49.826;6.740;2023-07-16T07:07:23;100132.45;;;29.26;42.96
74722;BME280;63470;49.826;6.740;2023-07-16T07:09:54;100128.90;;;29.80;42.08
74722;BME280;63470;49.826;6.740;2023-07-16T07:12:24;100133.52;;;30.39;41.13
74722;BME280;63470;49.826;6.740;2023-07-16T07:14:55;100128.96;;;30.62;40.63
74722;BME280;63470;49.826;6.740;2023-07-16T07:17:25;100128.78;;;30.92;39.96
74722;BME280;63470;49.826;6.740;2023-07-16T07:19:56;100133.28;;;30.59;40.28
74722;BME280;63470;49.826;6.740;2023-07-16T07:22:26;100127.59;;;30.64;40.36
74722;BME280;63470;49.826;6.740;2023-07-16T07:24:57;100126.41;;;30.88;40.14
74722;BME280;63470;49.826;6.740;2023-07-16T07:27:28;100129.80;;;30.86;40.16
74722;BME280;63470;49.826;6.740;2023-07-16T07:29:58;100129.59;;;30.95;40.08
74722;BME280;63470;49.826;6.740;2023-07-16T07:32:29;100131.41;;;30.00;41.25
74722;BME280;63470;49.826;6.740;2023-07-16T07:34:59;100126.94;;;30.14;40.84
74722;BME280;63470;49.826;6.740;2023-07-16T07:37:30;100129.53;;;29.66;41.24
74722;BME280;63470;49.826;6.740;2023-07-16T07:40:00;100133.39;;;29.79;40.78
74722;BME280;63470;49.826;6.740;2023-07-16T07:42:31;100136.09;;;27.99;43.04
74722;BME280;63470;49.826;6.740;2023-07-16T07:45:02;100146.62;;;27.50;43.55
74722;BME280;63470;49.826;6.740;2023-07-16T07:47:32;100140.31;;;28.06;42.67
74722;BME280;63470;49.826;6.740;2023-07-16T07:50:03;100147.39;;;28.14;42.50
74722;BME280;63470;49.826;6.740;2023-07-16T07:52:33;100140.52;;;28.40;42.09
74722;BME280;63470;49.826;6.740;2023-07-16T07:55:04;100139.94;;;27.66;43.06
74722;BME280;63470;49.826;6.740;2023-07-16T07:57:34;100148.33;;;28.05;42.70
74722;BME280;63470;49.826;6.740;2023-07-16T08:00:06;100149.55;;;27.70;43.11
74722;BME280;63470;49.826;6.740;2023-07-16T08:02:36;100142.00;;;27.59;43.35
74722;BME280;63470;49.826;6.740;2023-07-16T08:05:07;100143.09;;;28.85;41.96
74722;BME280;63470;49.826;6.740;2023-07-16T08:07:36;100138.78;;;29.64;41.22
74722;BME280;63470;49.826;6.740;2023-07-16T08:10:07;100148.91;;;29.30;41.79
74722;BME280;63470;49.826;6.740;2023-07-16T08:12:38;100150.73;;;28.72;42.60
74722;BME280;63470;49.826;6.740;2023-07-16T08:15:10;100145.88;;;28.75;42.61
74722;BME280;63470;49.826;6.740;2023-07-16T08:17:38;100147.42;;;29.00;42.44
74722;BME280;63470;49.826;6.740;2023-07-16T08:20:09;100151.48;;;29.91;41.54
74722;BME280;63470;49.826;6.740;2023-07-16T08:22:39;100158.91;;;29.34;42.49
74722;BME280;63470;49.826;6.740;2023-07-16T08:25:10;100151.34;;;27.96;44.36
74722;BME280;63470;49.826;6.740;2023-07-16T08:27:42;100153.92;;;28.48;43.67
74722;BME280;63470;49.826;6.740;2023-07-16T08:30:11;100145.73;;;29.78;42.20
74722;BME280;63470;49.826;6.740;2023-07-16T08:32:42;100146.80;;;30.31;41.80
74722;BME280;63470;49.826;6.740;2023-07-16T08:35:17;100140.00;;;29.89;42.40
74722;BME280;63470;49.826;6.740;2023-07-16T08:37:43;100152.27;;;28.75;43.98
74722;BME280;63470;49.826;6.740;2023-07-16T08:40:16;100152.94;;;28.93;43.67
74722;BME280;63470;49.826;6.740;2023-07-16T08:42:44;100156.33;;;27.56;45.49
74722;BME280;63470;49.826;6.740;2023-07-16T08:45:15;100157.93;;;28.26;44.42
74722;BME280;63470;49.826;6.740;2023-07-16T08:47:46;100160.56;;;27.66;45.15
74722;BME280;63470;49.826;6.740;2023-07-16T08:50:18;100160.27;;;27.16;45.70
74722;BME280;63470;49.826;6.740;2023-07-16T08:52:47;100163.22;;;27.44;45.15
74722;BME280;63470;49.826;6.740;2023-07-16T08:55:18;100158.08;;;26.93;45.75
74722;BME280;63470;49.826;6.740;2023-07-16T08:57:49;100165.84;;;28.52;43.62
74722;BME280;63470;49.826;6.740;2023-07-16T09:00:20;100160.73;;;29.13;43.03
74722;BME280;63470;49.826;6.740;2023-07-16T09:02:49;100169.33;;;28.67;43.71
74722;BME280;63470;49.826;6.740;2023-07-16T09:05:21;100164.52;;;29.66;42.45
74722;BME280;63470;49.826;6.740;2023-07-16T09:07:51;100161.44;;;31.27;40.63
74722;BME280;63470;49.826;6.740;2023-07-16T09:10:21;100156.19;;;32.81;39.09
74722;BME280;63470;49.826;6.740;2023-07-16T09:12:52;100150.17;;;33.08;39.08
74722;BME280;63470;49.826;6.740;2023-07-16T09:15:23;100155.83;;;33.30;39.04
74722;BME280;63470;49.826;6.740;2023-07-16T09:17:54;100160.34;;;32.53;40.28
74722;BME280;63470;49.826;6.740;2023-07-16T09:20:29;100168.84;;;31.15;42.18
74722;BME280;63470;49.826;6.740;2023-07-16T09:22:54;100169.70;;;29.60;44.20
74722;BME280;63470;49.826;6.740;2023-07-16T09:25:30;100179.16;;;28.73;45.22
74722;BME280;63470;49.826;6.740;2023-07-16T09:27:57;100168.83;;;30.34;42.88
74722;BME280;63470;49.826;6.740;2023-07-16T09:30:25;100162.16;;;32.53;40.25
74722;BME280;63470;49.826;6.740;2023-07-16T09:32:56;100167.74;;;33.18;39.65
74722;BME280;63470;49.826;6.740;2023-07-16T09:35:26;100174.81;;;33.26;39.69
74722;BME280;63470;49.826;6.740;2023-07-16T09:37:56;100179.63;;;31.95;41.43
74722;BME280;63470;49.826;6.740;2023-07-16T09:40:29;100172.42;;;31.88;41.47
74722;BME280;63470;49.826;6.740;2023-07-16T09:42:58;100173.02;;;31.14;42.40
74722;BME280;63470;49.826;6.740;2023-07-16T09:45:28;100180.98;;;31.26;42.12
74722;BME280;63470;49.826;6.740;2023-07-16T09:47:58;100182.20;;;30.95;42.39
74722;BME280;63470;49.826;6.740;2023-07-16T09:50:30;100178.18;;;31.53;41.57
74722;BME280;63470;49.826;6.740;2023-07-16T09:53:00;100179.42;;;31.05;42.16
74722;BME280;63470;49.826;6.740;2023-07-16T09:55:32;100177.61;;;30.71;42.55
74722;BME280;63470;49.826;6.740;2023-07-16T09:58:04;100185.77;;;29.51;44.03
74722;BME280;63470;49.826;6.740;2023-07-16T10:00:32;100183.44;;;30.09;43.11
74722;BME280;63470;49.826;6.740;2023-07-16T10:03:05;100176.98;;;30.74;42.19
74722;BME280;63470;49.826;6.740;2023-07-16T10:05:36;100187.92;;;29.55;43.75
74722;BME280;63470;49.826;6.740;2023-07-16T10:08:04;100183.53;;;29.26;43.89
74722;BME280;63470;49.826;6.740;2023-07-16T10:10:40;100177.98;;;30.36;42.29
74722;BME280;63470;49.826;6.740;2023-07-16T10:13:03;100179.52;;;30.65;41.87
74722;BME280;63470;49.826;6.740;2023-07-16T10:15:34;100171.25;;;31.01;41.47
74722;BME280;63470;49.826;6.740;2023-07-16T10:18:05;100183.88;;;29.72;43.20
74722;BME280;63470;49.826;6.740;2023-07-16T10:20:36;100176.36;;;29.98;42.71
74722;BME280;63470;49.826;6.740;2023-07-16T10:23:12;100174.41;;;30.44;42.08
74722;BME280;63470;49.826;6.740;2023-07-16T10:25:36;100170.97;;;31.07;41.25
74722;BME280;63470;49.826;6.740;2023-07-16T10:28:06;100178.96;;;31.62;40.58
74722;BME280;63470;49.826;6.740;2023-07-16T10:30:37;100174.11;;;30.79;41.75
74722;BME280;63470;49.826;6.740;2023-07-16T10:33:12;100175.72;;;29.58;43.31
74722;BME280;63470;49.826;6.740;2023-07-16T10:35:41;100180.72;;;28.65;44.37
74722;BME280;63470;49.826;6.740;2023-07-16T10:38:12;100184.33;;;28.28;44.68
74722;BME280;63470;49.826;6.740;2023-07-16T10:40:44;100174.58;;;29.12;43.60
74722;BME280;63470;49.826;6.740;2023-07-16T10:43:11;100175.34;;;29.98;42.78
74722;BME280;63470;49.826;6.740;2023-07-16T10:45:41;100177.79;;;29.65;43.32
74722;BME280;63470;49.826;6.740;2023-07-16T10:48:11;100185.20;;;28.77;44.31
74722;BME280;63470;49.826;6.740;2023-07-16T10:50:42;100177.36;;;28.19;44.94
74722;BME280;63470;49.826;6.740;2023-07-16T10:53:12;100187.27;;;28.32;44.79
74722;BME280;63470;49.826;6.740;2023-07-16T10:55:43;100175.77;;;28.86;44.38
74722;BME280;63470;49.826;6.740;2023-07-16T10:58:13;100181.80;;;29.07;44.29
74722;BME280;63470;49.826;6.740;2023-07-16T11:00:44;100172.94;;;28.98;44.40
74722;BME280;63470;49.826;6.740;2023-07-16T11:03:15;100177.60;;;28.95;44.41
74722;BME280;63470;49.826;6.740;2023-07-16T11:05:45;100178.91;;;29.03;44.28
74722;BME280;63470;49.826;6.740;2023-07-16T11:08:25;100173.83;;;29.01;44.28
74722;BME280;63470;49.826;6.740;2023-07-16T11:10:54;100188.61;;;28.80;44.41
74722;BME280;63470;49.826;6.740;2023-07-16T11:13:16;100185.81;;;28.40;44.72
74722;BME280;63470;49.826;6.740;2023-07-16T11:15:46;100173.52;;;28.30;44.71
74722;BME280;63470;49.826;6.740;2023-07-16T11:18:16;100182.14;;;28.26;44.65
74722;BME280;63470;49.826;6.740;2023-07-16T11:20:50;100176.11;;;27.91;44.90
74722;BME280;63470;49.826;6.740;2023-07-16T11:23:18;100170.52;;;27.63;45.09
74722;BME280;63470;49.826;6.740;2023-07-16T11:25:49;100168.93;;;27.42;45.19
74722;BME280;63470;49.826;6.740;2023-07-16T11:28:21;100171.70;;;27.23;45.27
74722;BME280;63470;49.826;6.740;2023-07-16T11:30:49;100166.34;;;27.23;45.09
74722;BME280;63470;49.826;6.740;2023-07-16T11:33:20;100153.45;;;27.54;44.57
74722;BME280;63470;49.826;6.740;2023-07-16T11:35:50;100156.31;;;27.87;44.09
74722;BME280;63470;49.826;6.740;2023-07-16T11:38:21;100160.48;;;27.74;44.15
74722;BME280;63470;49.826;6.740;2023-07-16T11:40:51;100163.16;;;27.46;44.40
74722;BME280;63470;49.826;6.740;2023-07-16T11:43:24;100162.52;;;27.11;44.74
74722;BME280;63470;49.826;6.740;2023-07-16T11:45:55;100169.33;;;26.85;44.94
74722;BME280;63470;49.826;6.740;2023-07-16T11:48:23;100164.13;;;26.67;45.05
74722;BME280;63470;49.826;6.740;2023-07-16T11:50:54;100154.25;;;26.57;45.08
74722;BME280;63470;49.826;6.740;2023-07-16T11:53:25;100170.83;;;26.39;45.19
74722;BME280;63470;49.826;6.740;2023-07-16T11:55:55;100168.55;;;26.30;45.15
74722;BME280;63470;49.826;6.740;2023-07-16T11:58:26;100160.67;;;26.58;44.69
74722;BME280;63470;49.826;6.740;2023-07-16T12:00:56;100164.17;;;26.94;44.17
74722;BME280;63470;49.826;6.740;2023-07-16T12:03:27;100162.42;;;27.03;44.03
74722;BME280;63470;49.826;6.740;2023-07-16T12:05:57;100165.89;;;27.15;43.92
74722;BME280;63470;49.826;6.740;2023-07-16T12:08:28;100155.53;;;27.22;43.86
74722;BME280;63470;49.826;6.740;2023-07-16T12:10:59;100152.33;;;27.38;43.66
74722;BME280;63470;49.826;6.740;2023-07-16T12:13:29;100154.59;;;27.30;43.74
74722;BME280;63470;49.826;6.740;2023-07-16T12:16:00;100159.77;;;27.14;43.93
74722;BME280;63470;49.826;6.740;2023-07-16T12:18:31;100161.20;;;27.19;43.88
74722;BME280;63470;49.826;6.740;2023-07-16T12:21:02;100150.69;;;27.21;43.91
74722;BME280;63470;49.826;6.740;2023-07-16T12:23:31;100151.75;;;27.29;43.87
74722;BME280;63470;49.826;6.740;2023-07-16T12:26:02;100148.16;;;27.17;43.97
74722;BME280;63470;49.826;6.740;2023-07-16T12:28:33;100159.86;;;27.17;43.99
74722;BME280;63470;49.826;6.740;2023-07-16T12:31:03;100153.95;;;27.42;43.76
74722;BME280;63470;49.826;6.740;2023-07-16T12:33:34;100153.48;;;27.70;43.53
74722;BME280;63470;49.826;6.740;2023-07-16T12:36:04;100148.62;;;27.92;43.31
74722;BME280;63470;49.826;6.740;2023-07-16T12:38:34;100148.27;;;27.98;43.31
74722;BME280;63470;49.826;6.740;2023-07-16T12:41:05;100146.56;;;28.10;43.29
74722;BME280;63470;49.826;6.740;2023-07-16T12:43:36;100143.09;;;28.02;43.48
74722;BME280;63470;49.826;6.740;2023-07-16T12:46:07;100140.48;;;28.06;43.50
74722;BME280;63470;49.826;6.740;2023-07-16T12:48:37;100150.48;;;28.08;43.51
74722;BME280;63470;49.826;6.740;2023-07-16T12:51:08;100138.23;;;27.87;43.68
74722;BME280;63470;49.826;6.740;2023-07-16T12:53:40;100143.52;;;27.76;43.84
74722;BME280;63470;49.826;6.740;2023-07-16T12:56:08;100146.83;;;27.72;43.86
74722;BME280;63470;49.826;6.740;2023-07-16T12:58:39;100141.72;;;27.87;43.66
74722;BME280;63470;49.826;6.740;2023-07-16T13:01:10;100140.05;;;27.94;43.60
74722;BME280;63470;49.826;6.740;2023-07-16T13:03:40;100139.72;;;27.75;43.79
74722;BME280;63470;49.826;6.740;2023-07-16T13:06:10;100147.73;;;27.44;44.09
74722;BME280;63470;49.826;6.740;2023-07-16T13:08:41;100149.25;;;27.16;44.33
74722;BME280;63470;49.826;6.740;2023-07-16T13:11:11;100144.41;;;27.03;44.38